createdAt,value
2016-06-07T00:01:49.931Z,57.39
2016-06-07T00:02:49.950Z,57.1
2016-06-07T00:03:49.984Z,57.1
2016-06-07T00:04:50.001Z,57.26
2016-06-07T00:05:50.036Z,57.84
2016-06-07T00:06:50.054Z,57.75
2016-06-07T00:07:50.072Z,58.32
2016-06-07T00:08:50.106Z,58.03
2016-06-07T00:09:50.124Z,57.65
2016-06-07T00:10:50.143Z,57.93
2016-06-07T00:11:50.162Z,57.93
2016-06-07T00:12:50.196Z,57.84
2016-06-07T00:13:50.213Z,58.12
2016-06-07T00:14:50.231Z,58.03
2016-06-07T00:16:50.284Z,57.17
2016-06-07T00:18:04.492Z,57.36
2016-06-07T00:18:50.180Z,58.32
2016-06-07T00:19:50.354Z,58.12
2016-06-07T00:20:51.139Z,57.46
2016-06-07T00:21:50.407Z,58.12
2016-06-07T00:22:50.426Z,57.36
2016-06-07T00:23:50.444Z,58.12
2016-06-07T00:24:50.321Z,58.12
2016-06-07T00:25:50.495Z,57.75
2016-06-07T00:27:50.547Z,58.03
2016-06-07T00:28:50.567Z,57.36
2016-06-07T00:29:50.617Z,57.93
2016-06-07T00:30:50.619Z,57.93
2016-06-07T00:31:50.636Z,57.55
2016-06-07T00:32:50.655Z,58.03
2016-06-07T00:34:04.880Z,58.03
2016-06-07T00:34:50.708Z,57.65
2016-06-07T00:35:50.929Z,59.27
2016-06-07T00:36:50.760Z,58.12
2016-06-07T00:37:50.777Z,57.84
2016-06-07T00:38:50.797Z,57.36
2016-06-07T00:39:50.830Z,57.36
2016-06-07T00:40:50.848Z,57.26
2016-06-07T00:41:50.882Z,58.03
2016-06-07T00:42:50.901Z,58.8
2016-06-07T00:43:50.919Z,58.22
2016-06-07T00:44:50.953Z,58.03
2016-06-07T00:45:50.971Z,58.38
2016-06-07T00:46:50.990Z,58.29
2016-06-07T00:47:50.868Z,57.93
2016-06-07T00:48:51.042Z,58.19
2016-06-07T00:50:05.250Z,58.29
2016-06-07T00:50:51.844Z,58
2016-06-07T00:51:51.222Z,57.71
2016-06-07T00:52:51.131Z,57.9
2016-06-07T00:53:51.165Z,58.29
2016-06-07T00:54:51.183Z,58.38
2016-06-07T00:55:51.201Z,57.9
2016-06-07T00:56:51.220Z,57.9
2016-06-07T00:57:51.254Z,57.9
2016-06-07T00:58:51.272Z,57.33
2016-06-07T01:00:51.325Z,58
2016-06-07T01:01:51.342Z,58.1
2016-06-07T01:03:51.395Z,58
2016-06-07T01:04:51.413Z,58.29
2016-06-07T01:06:06.434Z,58
2016-06-07T01:06:51.543Z,57.9
2016-06-07T01:07:51.483Z,57.81
2016-06-07T01:08:51.346Z,58.29
2016-06-07T01:09:51.536Z,58.19
2016-06-07T01:10:51.555Z,58.19
2016-06-07T01:11:51.588Z,57.81
2016-06-07T01:12:51.606Z,58.58
2016-06-07T01:13:51.624Z,57.81
2016-06-07T01:14:51.643Z,58.19
2016-06-07T01:15:51.677Z,58.29
2016-06-07T01:16:51.695Z,57.71
2016-06-07T01:17:51.714Z,58.19
2016-06-07T01:18:51.748Z,58.1
2016-06-07T01:19:51.765Z,57.81
2016-06-07T01:21:05.990Z,58.1
2016-06-07T01:21:51.818Z,58
2016-06-07T01:22:51.837Z,57.62
2016-06-07T01:23:51.855Z,57.81
2016-06-07T01:24:51.873Z,58.19
2016-06-07T01:25:51.906Z,58.67
2016-06-07T01:26:51.926Z,58.16
2016-06-07T01:27:51.959Z,58.07
2016-06-07T01:28:51.978Z,58.58
2016-06-07T01:29:51.996Z,58.19
2016-06-07T01:30:52.077Z,58.16
2016-06-07T01:31:52.048Z,58.54
2016-06-07T01:33:51.928Z,58.64
2016-06-07T01:34:51.963Z,58.38
2016-06-07T01:35:52.449Z,58.29
2016-06-07T01:36:52.609Z,58.38
2016-06-07T01:37:52.189Z,58.36
2016-06-07T01:38:52.208Z,58.38
2016-06-07T01:39:52.226Z,59.02
2016-06-07T01:40:52.260Z,59.05
2016-06-07T01:41:52.279Z,58.38
2016-06-07T01:42:52.297Z,59.12
2016-06-07T01:43:52.315Z,59.02
2016-06-07T01:44:52.348Z,59.41
2016-06-07T01:45:52.367Z,59.22
2016-06-07T01:46:52.401Z,59.69
2016-06-07T01:47:52.419Z,60.07
2016-06-07T01:48:52.441Z,59.88
2016-06-07T01:49:52.475Z,59.59
2016-06-07T01:50:52.523Z,59.98
2016-06-07T01:51:52.947Z,60.07
2016-06-07T01:53:06.793Z,60.07
2016-06-07T01:53:52.637Z,59.88
2016-06-07T01:54:52.660Z,60.07
2016-06-07T01:55:52.684Z,61.13
2016-06-07T01:56:52.708Z,61.13
2016-06-07T01:57:52.747Z,60.17
2016-06-07T01:58:52.770Z,61.13
2016-06-07T02:00:52.825Z,61.13
2016-06-07T02:01:52.846Z,61.32
2016-06-07T02:02:52.866Z,61.41
2016-06-07T02:03:52.902Z,61.41
2016-06-07T02:04:52.921Z,61.32
2016-06-07T02:05:52.941Z,61.79
2016-06-07T02:06:52.819Z,61.41
2016-06-07T02:07:52.994Z,62.18
2016-06-07T02:09:07.204Z,61.79
2016-06-07T02:09:53.032Z,61.69
2016-06-07T02:10:53.066Z,61.69
2016-06-07T02:11:53.084Z,61.51
2016-06-07T02:12:52.963Z,62.37
2016-06-07T02:13:53.138Z,61.98
2016-06-07T02:14:53.156Z,62.37
2016-06-07T02:15:53.174Z,62.37
2016-06-07T02:16:53.208Z,61.98
2016-06-07T02:17:53.226Z,62.46
2016-06-07T02:18:53.246Z,62.27
2016-06-07T02:20:53.782Z,62.91
2016-06-07T02:21:53.315Z,62.43
2016-06-07T02:23:53.212Z,63.39
2016-06-07T02:25:07.576Z,63.29
2016-06-07T02:25:53.404Z,63.48
2016-06-07T02:26:53.438Z,63.2
2016-06-07T02:27:53.457Z,63.39
2016-06-07T02:28:53.475Z,63.2
2016-06-07T02:29:53.493Z,63.29
2016-06-07T02:30:53.527Z,63.67
2016-06-07T02:31:53.545Z,63.39
2016-06-07T02:32:53.408Z,63.48
2016-06-07T02:33:53.598Z,63.67
2016-06-07T02:34:53.617Z,63.86
2016-06-07T02:35:54.259Z,63.76
2016-06-07T02:36:53.669Z,63.76
2016-06-07T02:37:53.686Z,64.15
2016-06-07T02:38:53.705Z,64.53
2016-06-07T02:39:53.739Z,64.53
2016-06-07T02:41:07.947Z,64.43
2016-06-07T02:41:53.775Z,63.86
2016-06-07T02:42:53.794Z,64.72
2016-06-07T02:43:53.828Z,64.81
2016-06-07T02:44:53.846Z,64.81
2016-06-07T02:45:53.864Z,64.72
2016-06-07T02:46:53.883Z,64.62
2016-06-07T02:47:53.916Z,64.34
2016-06-07T02:48:53.935Z,64.43
2016-06-07T02:49:53.953Z,64.91
2016-06-07T02:51:54.725Z,65.48
2016-06-07T02:52:54.023Z,65.39
2016-06-07T02:53:54.043Z,65.3
2016-06-07T02:54:54.076Z,65.3
2016-06-07T02:56:08.285Z,65.39
2016-06-07T02:56:54.113Z,65.67
2016-06-07T02:57:54.146Z,65.87
2016-06-07T02:58:54.165Z,65.48
2016-06-07T02:59:54.199Z,66.15
2016-06-07T03:00:54.218Z,66.53
2016-06-07T03:01:54.236Z,66.35
2016-06-07T03:02:54.254Z,65.67
2016-06-07T03:03:54.287Z,65.67
2016-06-07T03:04:54.306Z,66.44
2016-06-07T03:05:54.387Z,66.63
2016-06-07T03:06:54.358Z,66.92
2016-06-07T03:07:54.377Z,66.92
2016-06-07T03:08:54.395Z,66.82
2016-06-07T03:09:54.429Z,66.82
2016-06-07T03:10:54.447Z,67.11
2016-06-07T03:11:54.466Z,66.63
2016-06-07T03:12:54.483Z,67.01
2016-06-07T03:13:54.502Z,66.92
2016-06-07T03:14:54.552Z,66.92
2016-06-07T03:15:54.554Z,66.82
2016-06-07T03:16:54.572Z,67.77
2016-06-07T03:17:54.591Z,67.01
2016-06-07T03:18:54.625Z,67.3
2016-06-07T03:19:54.644Z,67.68
2016-06-07T03:21:54.711Z,67.68
2016-06-07T03:22:54.714Z,67.49
2016-06-07T03:23:54.732Z,68.26
2016-06-07T03:24:54.751Z,68.16
2016-06-07T03:25:54.785Z,68.26
2016-06-07T03:26:54.819Z,68.06
2016-06-07T03:28:09.012Z,68.06
2016-06-07T03:28:54.855Z,67.97
2016-06-07T03:29:54.873Z,67.77
2016-06-07T03:30:54.907Z,68.16
2016-06-07T03:31:54.926Z,67.77
2016-06-07T03:32:54.960Z,67.97
2016-06-07T03:33:54.978Z,69.02
2016-06-07T03:34:54.981Z,68.92
2016-06-07T03:35:55.014Z,67.77
2016-06-07T03:36:55.033Z,68.26
2016-06-07T03:37:55.067Z,67.87
2016-06-07T03:38:55.100Z,67.87
2016-06-07T03:39:55.103Z,68.06
2016-06-07T03:41:55.140Z,68.06
2016-06-07T03:44:09.383Z,67.68
2016-06-07T03:44:55.211Z,67.87
2016-06-07T03:45:55.244Z,67.49
2016-06-07T03:46:55.263Z,67.49
2016-06-07T03:47:55.281Z,67.77
2016-06-07T03:48:55.299Z,68.35
2016-06-07T03:49:55.333Z,67.97
2016-06-07T03:50:55.352Z,68.16
2016-06-07T03:51:55.386Z,67.58
2016-06-07T03:52:55.404Z,67.77
2016-06-07T03:53:55.422Z,68.06
2016-06-07T03:54:55.441Z,68.16
2016-06-07T03:55:55.474Z,67.97
2016-06-07T03:56:55.493Z,68.92
2016-06-07T03:58:55.529Z,68.82
2016-06-07T04:00:09.754Z,69.49
2016-06-07T04:00:55.598Z,69.21
2016-06-07T04:01:55.601Z,69.59
2016-06-07T04:02:55.634Z,68.44
2016-06-07T04:03:55.653Z,68.92
2016-06-07T04:04:55.670Z,68.44
2016-06-07T04:05:55.704Z,68.73
2016-06-07T04:06:56.114Z,69.11
2016-06-07T04:07:55.742Z,68.92
2016-06-07T04:08:55.759Z,68.63
2016-06-07T04:09:55.794Z,68.57
2016-06-07T04:10:55.812Z,67.43
2016-06-07T04:12:55.864Z,62.46
2016-06-07T04:13:55.883Z,59.75
2016-06-07T04:16:10.108Z,54.37
2016-06-07T04:16:55.952Z,52.22
2016-06-07T04:17:55.972Z,50.01
2016-06-07T04:18:55.850Z,48.71
2016-06-07T04:19:56.024Z,48.07
2016-06-07T04:20:56.057Z,46.74
2016-06-07T04:21:55.919Z,45.42
2016-06-07T04:22:56.110Z,43.61
2016-06-07T04:23:56.128Z,42.76
2016-06-07T04:24:56.147Z,42.79
2016-06-07T04:25:56.180Z,41.44
2016-06-07T04:26:56.214Z,41.14
2016-06-07T04:27:56.249Z,39.91
2016-06-07T04:31:10.510Z,37.65
2016-06-07T04:31:56.338Z,37.37
2016-06-07T04:32:56.371Z,37.65
2016-06-07T04:33:56.404Z,37.83
2016-06-07T04:34:56.424Z,37.25
2016-06-07T04:35:56.503Z,36.87
2016-06-07T04:36:56.507Z,36.5
2016-06-07T04:37:57.431Z,35.92
2016-06-07T04:38:56.543Z,35.47
2016-06-07T04:39:56.561Z,34.7
2016-06-07T04:40:56.612Z,33.94
2016-06-07T04:41:56.630Z,33.09
2016-06-07T04:43:56.681Z,33.18
2016-06-07T04:44:56.717Z,32.62
2016-06-07T04:45:56.749Z,33.1
2016-06-07T04:46:56.783Z,31.29
2016-06-07T04:47:56.802Z,30.54
2016-06-07T04:48:56.836Z,30.24
2016-06-07T04:49:56.870Z,29.77
2016-06-07T04:50:56.904Z,29.38
2016-06-07T04:52:57.799Z,29.51
2016-06-07T04:53:56.990Z,28.64
2016-06-07T04:54:57.024Z,28.07
2016-06-07T04:55:57.058Z,28.15
2016-06-07T04:56:57.091Z,27.78
2016-06-07T04:57:57.126Z,27.19
2016-06-07T04:58:57.144Z,27.59
2016-06-07T04:59:57.179Z,26.04
2016-06-07T05:00:57.056Z,26.36
2016-06-07T05:01:57.246Z,26.07
2016-06-07T05:03:11.470Z,25.89
2016-06-07T05:03:57.314Z,26.18
2016-06-07T05:04:57.348Z,26.65
2016-06-07T05:05:57.382Z,25.58
2016-06-07T05:06:57.432Z,25.12
2016-06-07T05:07:57.450Z,24.26
2016-06-07T05:08:57.484Z,24.35
2016-06-07T05:09:57.501Z,25.62
2016-06-07T05:10:57.551Z,25.32
2016-06-07T05:11:57.570Z,23.28
2016-06-07T05:12:57.619Z,23.79
2016-06-07T05:13:57.637Z,23.68
2016-06-07T05:14:57.672Z,23.78
2016-06-07T05:16:57.739Z,23.67
2016-06-07T05:17:57.772Z,23.1
2016-06-07T05:19:11.997Z,22.52
2016-06-07T05:19:57.841Z,22.72
2016-06-07T05:20:57.875Z,23.49
2016-06-07T05:21:57.924Z,22.8
2016-06-07T05:22:57.944Z,23.21
2016-06-07T05:23:57.977Z,24.08
2016-06-07T05:24:58.011Z,23.1
2016-06-07T05:25:58.044Z,22.92
2016-06-07T05:26:58.079Z,22.44
2016-06-07T05:27:58.129Z,23.19
2016-06-07T05:28:58.147Z,23.18
2016-06-07T05:29:58.196Z,23.78
2016-06-07T05:30:58.229Z,24.63
2016-06-07T05:31:58.248Z,23.85
2016-06-07T05:32:58.298Z,23.96
2016-06-07T05:33:58.332Z,23.96
2016-06-07T05:35:12.557Z,25.41
2016-06-07T05:35:58.401Z,24.35
2016-06-07T05:36:58.996Z,23.99
2016-06-07T05:37:58.467Z,23.51
2016-06-07T05:38:58.502Z,22.92
2016-06-07T05:39:58.645Z,22.83
2016-06-07T05:40:58.570Z,23.41
2016-06-07T05:41:58.634Z,24.82
2016-06-07T05:42:58.637Z,25.76
2016-06-07T05:43:58.515Z,26.43
2016-06-07T05:45:00.128Z,26.43
2016-06-07T05:45:58.755Z,26.34
2016-06-07T05:46:58.773Z,27.58
2016-06-07T05:48:58.685Z,26.92
2016-06-07T05:49:58.875Z,27.22
2016-06-07T05:51:13.114Z,25.89
2016-06-07T05:51:58.974Z,26.65
2016-06-07T05:52:58.992Z,25.8
2016-06-07T05:53:59.011Z,25.13
2016-06-07T05:54:59.061Z,24.35
2016-06-07T05:55:59.094Z,25.23
2016-06-07T05:56:59.128Z,24.35
2016-06-07T05:57:59.163Z,23.68
2016-06-07T05:58:59.197Z,23.88
2016-06-07T05:59:59.230Z,23.78
2016-06-07T06:00:59.263Z,23.97
2016-06-07T06:01:59.299Z,24.08
2016-06-07T06:02:59.348Z,23.21
2016-06-07T06:03:59.366Z,23.51
2016-06-07T06:04:59.399Z,23.89
2016-06-07T06:06:13.624Z,23.8
2016-06-07T06:06:59.468Z,24.29
2016-06-07T06:07:59.768Z,22.53
2016-06-07T06:08:59.535Z,22.63
2016-06-07T06:09:59.570Z,23.03
2016-06-07T06:10:59.604Z,23.23
2016-06-07T06:11:59.637Z,22.94
2016-06-07T06:12:59.687Z,22.17
2016-06-07T06:13:59.565Z,22.36
2016-06-07T06:14:59.755Z,22.36
2016-06-07T06:15:59.789Z,21.69
2016-06-07T06:16:59.822Z,22.19
2016-06-07T06:17:59.857Z,21.41
2016-06-07T06:18:59.906Z,20.34
2016-06-07T06:19:59.925Z,20.65
2016-06-07T06:20:59.958Z,20.94
2016-06-07T06:22:00.008Z,20.94
2016-06-07T06:23:00.480Z,20.36
2016-06-07T06:24:00.076Z,20.67
2016-06-07T06:25:00.110Z,20.29
2016-06-07T06:26:00.144Z,19.81
2016-06-07T06:27:00.178Z,19.24
2016-06-07T06:28:00.211Z,19.53
2016-06-07T06:29:00.261Z,19.22
2016-06-07T06:30:00.295Z,19.13
2016-06-07T06:31:00.330Z,19.51
2016-06-07T06:33:00.396Z,18.35
2016-06-07T06:34:00.447Z,18.54
2016-06-07T06:35:00.480Z,18.62
2016-06-07T06:37:01.079Z,20.25
2016-06-07T06:38:14.788Z,19.98
2016-06-07T06:39:00.632Z,20.38
2016-06-07T06:40:00.665Z,19.69
2016-06-07T06:41:00.700Z,19.4
2016-06-07T06:42:00.733Z,20.17
2016-06-07T06:43:00.784Z,22
2016-06-07T06:44:00.818Z,22.08
2016-06-07T06:45:00.851Z,21.88
2016-06-07T06:46:00.884Z,21.8
2016-06-07T06:47:00.935Z,22.38
2016-06-07T06:48:00.984Z,21.42
2016-06-07T06:49:01.017Z,20.94
2016-06-07T06:50:01.068Z,21.04
2016-06-07T06:51:01.070Z,20.66
2016-06-07T06:52:01.745Z,20.46
2016-06-07T06:53:01.669Z,21.06
2016-06-07T06:54:15.378Z,20.29
2016-06-07T06:55:01.222Z,19.53
2016-06-07T06:56:01.255Z,19.91
2016-06-07T06:57:01.290Z,19.12
2016-06-07T06:58:01.339Z,18.95
2016-06-07T06:59:01.374Z,19.62
2016-06-07T07:00:01.407Z,19.14
2016-06-07T07:01:01.471Z,19.34
2016-06-07T07:02:01.491Z,20.41
2016-06-07T07:03:01.525Z,19.22
2016-06-07T07:04:01.558Z,20.19
2016-06-07T07:05:01.608Z,19.32
2016-06-07T07:06:01.643Z,19.13
2016-06-07T07:07:01.879Z,20.49
2016-06-07T07:08:02.898Z,19.32
2016-06-07T07:09:01.743Z,19.33
2016-06-07T07:10:15.984Z,19.06
2016-06-07T07:11:01.827Z,18.27
2016-06-07T07:12:01.861Z,18.77
2016-06-07T07:13:01.911Z,17.79
2016-06-07T07:14:01.945Z,17.5
2016-06-07T07:15:01.979Z,18.67
2016-06-07T07:16:02.012Z,18.86
2016-06-07T07:17:02.047Z,18.46
2016-06-07T07:18:02.081Z,18.96
2016-06-07T07:19:02.130Z,18.76
2016-06-07T07:20:02.164Z,18.75
2016-06-07T07:21:02.197Z,19.51
2016-06-07T07:22:02.264Z,20.37
2016-06-07T07:23:02.672Z,19.68
2016-06-07T07:24:02.315Z,19.99
2016-06-07T07:25:02.194Z,19.81
2016-06-07T07:26:16.589Z,19.92
2016-06-07T07:27:02.433Z,18.93
2016-06-07T07:28:02.466Z,20.12
2016-06-07T07:29:02.500Z,19.51
2016-06-07T07:30:02.535Z,19.62
2016-06-07T07:31:02.585Z,19.04
2016-06-07T07:32:02.618Z,18.76
2016-06-07T07:33:02.652Z,19.54
2016-06-07T07:34:02.686Z,19.12
2016-06-07T07:35:02.736Z,19.8
2016-06-07T07:36:02.769Z,20.68
2016-06-07T07:37:03.679Z,19.42
2016-06-07T07:38:03.307Z,20.39
2016-06-07T07:39:02.777Z,19.9
2016-06-07T07:40:02.920Z,19.22
2016-06-07T07:41:17.146Z,18.95
2016-06-07T07:42:02.990Z,18.27
2016-06-07T07:43:03.023Z,18.85
2016-06-07T07:44:03.073Z,17.57
2016-06-07T07:45:03.106Z,18.27
2016-06-07T07:46:03.140Z,19.15
2016-06-07T07:47:03.189Z,18.64
2016-06-07T07:48:03.224Z,19.23
2016-06-07T07:49:03.258Z,19.1
2016-06-07T07:50:03.291Z,20.47
2016-06-07T07:51:03.325Z,19.1
2016-06-07T07:52:03.359Z,19.6
2016-06-07T07:53:03.409Z,19.51
2016-06-07T07:55:03.477Z,19.3
2016-06-07T07:56:03.511Z,20
2016-06-07T07:57:03.575Z,18.64
2016-06-07T07:58:03.594Z,18.67
2016-06-07T07:59:03.628Z,18.88
2016-06-07T08:00:03.663Z,19.36
2016-06-07T08:01:03.696Z,18.08
2016-06-07T08:02:03.746Z,18.59
2016-06-07T08:03:03.624Z,17
2016-06-07T08:04:03.813Z,18.37
2016-06-07T08:05:03.847Z,19.7
2016-06-07T08:06:03.881Z,20.46
2016-06-07T08:07:04.712Z,21.03
2016-06-07T08:08:04.466Z,20.25
2016-06-07T08:09:03.999Z,21.42
2016-06-07T08:11:04.082Z,19.67
2016-06-07T08:12:04.101Z,19.18
2016-06-07T08:13:18.340Z,19.1
2016-06-07T08:14:04.028Z,19.02
2016-06-07T08:15:04.218Z,19.7
2016-06-07T08:16:04.251Z,18.93
2016-06-07T08:17:04.286Z,18.92
2016-06-07T08:18:04.336Z,19.89
2016-06-07T08:19:04.370Z,17.65
2016-06-07T08:20:04.404Z,18.74
2016-06-07T08:21:04.437Z,18.74
2016-06-07T08:22:04.330Z,18.95
2016-06-07T08:23:04.520Z,18.95
2016-06-07T08:25:04.589Z,17.21
2016-06-07T08:26:04.622Z,18.88
2016-06-07T08:28:04.691Z,17.11
2016-06-07T08:29:18.915Z,16.9
2016-06-07T08:30:04.775Z,17.77
2016-06-07T08:31:04.808Z,16.98
2016-06-07T08:32:04.842Z,18.54
2016-06-07T08:33:04.876Z,17.94
2016-06-07T08:34:04.925Z,17.46
2016-06-07T08:35:04.959Z,17.08
2016-06-07T08:37:05.028Z,17.96
2016-06-07T08:38:05.108Z,16.88
2016-06-07T08:39:05.110Z,17.66
2016-06-07T08:40:05.145Z,18.63
2016-06-07T08:41:05.178Z,19.3
2016-06-07T08:43:05.246Z,18.92
2016-06-07T08:45:19.614Z,18.7
2016-06-07T08:46:05.395Z,19.96
2016-06-07T08:47:05.335Z,19.67
2016-06-07T08:48:05.432Z,20.45
2016-06-07T08:49:05.465Z,19.67
2016-06-07T08:50:05.515Z,19.3
2016-06-07T08:51:05.533Z,19.01
2016-06-07T08:52:05.568Z,18.72
2016-06-07T08:53:06.101Z,17.65
2016-06-07T08:54:05.651Z,17.96
2016-06-07T08:55:05.685Z,18.35
2016-06-07T08:56:05.719Z,18.25
2016-06-07T08:57:05.753Z,17.36
2016-06-07T08:58:05.787Z,17.19
2016-06-07T09:00:05.870Z,17.48
2016-06-07T09:01:20.079Z,18.73
2016-06-07T09:02:05.922Z,17.84
2016-06-07T09:03:05.972Z,18.13
2016-06-07T09:04:06.006Z,20.27
2016-06-07T09:05:06.040Z,18.02
2016-06-07T09:06:06.074Z,17.05
2016-06-07T09:07:05.952Z,17.07
2016-06-07T09:09:06.176Z,17.05
2016-06-07T09:10:06.226Z,18.23
2016-06-07T09:11:06.259Z,17.63
2016-06-07T09:12:06.294Z,16.95
2016-06-07T09:14:06.377Z,16.49
2016-06-07T09:15:06.395Z,17.94
2016-06-07T09:16:20.620Z,19.14
2016-06-07T09:17:06.479Z,17.09
2016-06-07T09:18:06.497Z,16.5
2016-06-07T09:19:06.546Z,16.21
2016-06-07T09:20:06.565Z,15.44
2016-06-07T09:21:06.614Z,15.72
2016-06-07T09:22:06.649Z,15.92
2016-06-07T09:23:06.714Z,16.01
2016-06-07T09:24:06.731Z,16.19
2016-06-07T09:25:06.750Z,15.41
2016-06-07T09:26:06.784Z,16.38
2016-06-07T09:27:06.818Z,16.27
2016-06-07T09:28:06.853Z,16.36
2016-06-07T09:29:06.886Z,15.17
2016-06-07T09:31:06.969Z,14.99
2016-06-07T09:32:07.004Z,15.38
2016-06-07T09:33:07.038Z,15.69
2016-06-07T09:34:07.072Z,15.48
2016-06-07T09:35:07.106Z,15.75
2016-06-07T09:36:07.139Z,16.16
2016-06-07T09:37:07.173Z,17.14
2016-06-07T09:38:08.566Z,16.47
2016-06-07T09:39:07.241Z,15.28
2016-06-07T09:40:07.274Z,15.57
2016-06-07T09:41:07.309Z,17.02
2016-06-07T09:43:07.377Z,18.7
2016-06-07T09:44:07.410Z,16.16
2016-06-07T09:45:07.288Z,15.19
2016-06-07T09:46:07.478Z,16.06
2016-06-07T09:47:07.513Z,16.55
2016-06-07T09:48:21.737Z,15.77
2016-06-07T09:49:07.581Z,15.58
2016-06-07T09:50:07.630Z,15.67
2016-06-07T09:51:07.648Z,17.05
2016-06-07T09:52:07.698Z,16.57
2016-06-07T09:53:07.717Z,15.11
2016-06-07T09:54:08.078Z,13.44
2016-06-07T09:55:07.784Z,13.73
2016-06-07T09:56:07.818Z,14.51
2016-06-07T09:57:07.867Z,14.41
2016-06-07T09:58:07.901Z,15.39
2016-06-07T09:59:07.920Z,15.41
2016-06-07T10:01:08.003Z,14.14
2016-06-07T10:02:08.037Z,13.85
2016-06-07T10:03:08.071Z,15.22
2016-06-07T10:04:22.295Z,14.42
2016-06-07T10:05:08.139Z,14.43
2016-06-07T10:06:08.158Z,15.31
2016-06-07T10:07:08.050Z,15
2016-06-07T10:09:08.260Z,15
2016-06-07T10:10:08.309Z,14.23
2016-06-07T10:11:08.343Z,15.01
2016-06-07T10:12:08.376Z,15.19
2016-06-07T10:13:08.410Z,15.67
2016-06-07T10:14:08.429Z,15.47
2016-06-07T10:15:08.463Z,15.47
2016-06-07T10:16:08.513Z,16.37
2016-06-07T10:18:08.565Z,17.25
2016-06-07T10:19:08.615Z,13.54
2016-06-07T10:20:22.822Z,14.03
2016-06-07T10:21:08.668Z,14.01
2016-06-07T10:22:08.701Z,13.63
2016-06-07T10:23:08.924Z,14.03
2016-06-07T10:24:08.769Z,16.18
2016-06-07T10:25:08.803Z,17.26
2016-06-07T10:26:08.853Z,14.72
2016-06-07T10:27:08.871Z,15.1
2016-06-07T10:28:08.905Z,17.16
2016-06-07T10:29:08.939Z,15.89
2016-06-07T10:30:08.988Z,14.9
2016-06-07T10:31:09.006Z,16.47
2016-06-07T10:32:09.041Z,16.47
2016-06-07T10:33:09.075Z,18.03
2016-06-07T10:34:09.109Z,16.47
2016-06-07T10:35:09.143Z,15.39
2016-06-07T10:36:23.364Z,14.7
2016-06-07T10:37:09.211Z,17.43
2016-06-07T10:38:09.947Z,17.52
2016-06-07T10:39:09.279Z,16.53
2016-06-07T10:40:09.312Z,17.59
2016-06-07T10:41:09.331Z,16.9
2016-06-07T10:42:09.365Z,18.54
2016-06-07T10:43:09.398Z,17.66
2016-06-07T10:44:09.433Z,18.35
2016-06-07T10:45:09.467Z,19.2
2016-06-07T10:46:09.500Z,18.82
2016-06-07T10:47:09.534Z,19.31
2016-06-07T10:48:09.568Z,19.7
2016-06-07T10:49:09.603Z,18.62
2016-06-07T10:50:09.636Z,19.31
2016-06-07T10:51:23.858Z,18.82
2016-06-07T10:52:09.704Z,20.96
2016-06-07T10:53:09.597Z,20.29
2016-06-07T10:54:09.771Z,18.64
2016-06-07T10:55:09.818Z,19.21
2016-06-07T10:56:09.868Z,18.91
2016-06-07T10:57:09.916Z,19.01
2016-06-07T10:58:09.950Z,18.62
2016-06-07T10:59:09.999Z,19.88
2016-06-07T11:00:10.040Z,20.57
2016-06-07T11:01:10.078Z,19.31
2016-06-07T11:02:10.133Z,20.77
2016-06-07T11:03:10.173Z,20.28
2016-06-07T11:04:10.197Z,18.71
2016-06-07T11:05:10.233Z,18.9
2016-06-07T11:06:10.253Z,18.8
2016-06-07T11:07:10.305Z,19
2016-06-07T11:08:10.325Z,18.21
2016-06-07T11:09:10.393Z,18.4
2016-06-07T11:10:10.396Z,18.31
2016-06-07T11:11:10.430Z,17.72
2016-06-07T11:12:10.465Z,17.8
2016-06-07T11:13:10.501Z,18.59
2016-06-07T11:14:10.534Z,18.59
2016-06-07T11:15:10.554Z,20.35
2016-06-07T11:16:10.588Z,18.88
2016-06-07T11:17:10.622Z,20.25
2016-06-07T11:18:10.656Z,18.8
2016-06-07T11:21:10.759Z,17.53
2016-06-07T11:22:10.777Z,16.85
2016-06-07T11:23:24.998Z,17.53
2016-06-07T11:24:11.172Z,17.44
2016-06-07T11:25:10.878Z,16.95
2016-06-07T11:26:10.913Z,18.9
2016-06-07T11:27:10.930Z,17.63
2016-06-07T11:28:10.966Z,17.62
2016-06-07T11:29:10.999Z,18.19
2016-06-07T11:30:11.033Z,18.68
2016-06-07T11:31:11.066Z,18.88
2016-06-07T11:32:11.102Z,19.85
2016-06-07T11:33:11.119Z,18.79
2016-06-07T11:34:11.153Z,18.5
2016-06-07T11:38:11.304Z,17.71
2016-06-07T11:39:25.495Z,17.61
2016-06-07T11:40:11.340Z,18.59
2016-06-07T11:41:11.375Z,18.59
2016-06-07T11:42:11.409Z,17.61
2016-06-07T11:43:11.443Z,16.94
2016-06-07T11:44:11.477Z,17.82
2016-06-07T11:45:11.339Z,19.08
2016-06-07T11:46:11.529Z,18.6
2016-06-07T11:47:11.562Z,18.78
2016-06-07T11:48:11.581Z,18.78
2016-06-07T11:49:11.615Z,19.84
2016-06-07T11:52:11.561Z,19.75
2016-06-07T11:53:11.751Z,20.14
2016-06-07T11:54:11.925Z,18.49
2016-06-07T11:55:25.991Z,20.04
2016-06-07T11:56:11.836Z,19.75
2016-06-07T11:57:11.872Z,19.75
2016-06-07T11:58:11.905Z,19.86
2016-06-07T11:59:11.924Z,18.6
2016-06-07T12:00:11.958Z,19.08
2016-06-07T12:01:11.991Z,18.7
2016-06-07T12:02:12.025Z,20.06
2016-06-07T12:03:12.043Z,18.11
2016-06-07T12:04:12.077Z,19.96
2016-06-07T12:05:12.111Z,18.21
2016-06-07T12:06:12.161Z,18.51
2016-06-07T12:07:12.180Z,16.85
2016-06-07T12:08:12.229Z,17.63
2016-06-07T12:09:12.372Z,16.07
2016-06-07T12:10:12.265Z,16.84
2016-06-07T12:11:26.487Z,19.27
2016-06-07T12:12:12.333Z,19.27
2016-06-07T12:13:12.367Z,18.6
2016-06-07T12:14:12.385Z,16.27
2016-06-07T12:15:12.420Z,18.3
2016-06-07T12:16:12.454Z,16.16
2016-06-07T12:17:12.487Z,16.46
2016-06-07T12:18:12.506Z,17.52
2016-06-07T12:19:12.540Z,19.27
2016-06-07T12:22:12.642Z,17.82
2016-06-07T12:23:12.504Z,17.44
2016-06-07T12:25:12.728Z,17.53
2016-06-07T12:26:26.950Z,17.82
2016-06-07T12:27:12.780Z,17.72
2016-06-07T12:28:12.814Z,17.33
2016-06-07T12:29:12.847Z,17.32
2016-06-07T12:30:12.882Z,17.21
2016-06-07T12:31:12.900Z,18.27
2016-06-07T12:32:12.950Z,18.66
2016-06-07T12:34:13.002Z,18.27
2016-06-07T12:35:13.020Z,18.37
2016-06-07T12:36:13.054Z,16.91
2016-06-07T12:37:13.088Z,17.69
2016-06-07T12:39:13.156Z,18.08
2016-06-07T12:40:13.190Z,18.19
2016-06-07T12:41:13.224Z,18.77
2016-06-07T12:42:13.243Z,18.78
2016-06-07T12:43:13.276Z,20.24
2016-06-07T12:44:13.310Z,20.45
2016-06-07T12:45:13.187Z,18.21
2016-06-07T12:46:13.362Z,17.24
2016-06-07T12:47:13.396Z,19.09
2016-06-07T12:48:13.415Z,17.63
2016-06-07T12:49:13.449Z,18.7
2016-06-07T12:50:13.482Z,17.64
2016-06-07T12:51:13.517Z,16.95
2016-06-07T12:52:13.551Z,17.72
2016-06-07T12:53:14.084Z,17.33
2016-06-07T12:54:13.603Z,18.19
2016-06-07T12:55:13.652Z,18.88
2016-06-07T12:56:13.686Z,20.15
2016-06-07T12:57:13.705Z,19.78
2016-06-07T12:58:27.911Z,17.53
2016-06-07T12:59:13.756Z,17.82
2016-06-07T13:00:13.791Z,18.5
2016-06-07T13:01:13.808Z,19.09
2016-06-07T13:02:13.843Z,18.7
2016-06-07T13:03:13.924Z,19.19
2016-06-07T13:04:13.911Z,17.64
2016-06-07T13:05:13.945Z,17.64
2016-06-07T13:06:13.963Z,20.16
2016-06-07T13:07:13.996Z,18.8
2016-06-07T13:08:14.500Z,18.51
2016-06-07T13:10:14.099Z,18.8
2016-06-07T13:11:14.117Z,17.83
2016-06-07T13:12:14.448Z,17.72
2016-06-07T13:13:14.185Z,16.36
2016-06-07T13:14:28.406Z,16.85
2016-06-07T13:15:14.096Z,17.63
2016-06-07T13:16:14.271Z,16.85
2016-06-07T13:17:14.304Z,17.53
2016-06-07T13:18:14.339Z,18.41
2016-06-07T13:19:14.373Z,18.51
2016-06-07T13:20:14.392Z,18.6
2016-06-07T13:21:14.425Z,17.53
2016-06-07T13:22:14.459Z,17.63
2016-06-07T13:23:14.493Z,17.14
2016-06-07T13:24:14.370Z,17.91
2016-06-07T13:25:14.561Z,18.3
2016-06-07T13:26:14.578Z,17.23
2016-06-07T13:27:14.614Z,18.3
2016-06-07T13:28:14.648Z,18.01
2016-06-07T13:29:14.666Z,17.91
2016-06-07T13:30:28.887Z,18.5
2016-06-07T13:31:14.733Z,19.37
2016-06-07T13:32:14.752Z,19.07
2016-06-07T13:33:14.785Z,18.59
2016-06-07T13:34:14.819Z,19.27
2016-06-07T13:35:14.853Z,17.61
2016-06-07T13:36:14.872Z,18.49
2016-06-07T13:37:14.906Z,17.22
2016-06-07T13:38:14.940Z,17.6
2016-06-07T13:39:15.427Z,17.9
2016-06-07T13:40:14.992Z,18.58
2016-06-07T13:41:15.026Z,18.98
2016-06-07T13:42:15.075Z,19.07
2016-06-07T13:43:15.094Z,17.9
2016-06-07T13:44:14.971Z,17.8
2016-06-07T13:45:15.146Z,19.07
2016-06-07T13:46:29.367Z,17.72
2016-06-07T13:47:15.214Z,18.98
2016-06-07T13:48:15.248Z,18.19
2016-06-07T13:49:15.266Z,19.07